Time;durP1;ratioP1;P1;durP2;ratioP2;P2;SDS_P1;SDS_P2;PMS_P1;PMS_P2;Temp;Humidity;BMP_temperature;BMP_pressure;BME280_temperature;BME280_humidity;BME280_pressure;Samples;Min_cycle;Max_cycle;Signal;HPM_P1;HPM_P2
2023/07/30 00:01:20;;;;;;;14.40;6.18;;;;;;;25.74;38.38;99345.00;3107826;28;20046;-73
2023/07/30 00:02:52;;;;;;;13.25;5.95;;;;;;;25.71;38.52;99342.69;3103204;28;20082;-73
2023/07/30 00:04:23;;;;;;;12.82;6.43;;;;;;;25.68;38.15;99342.22;3083703;28;20509;-73
2023/07/30 00:05:55;;;;;;;19.52;7.53;;;;;;;25.67;38.27;99349.38;3106376;28;20058;-74
2023/07/30 00:07:26;;;;;;;14.90;7.03;;;;;;;25.61;38.50;99340.25;3107530;28;20050;-73
2023/07/30 00:08:58;;;;;;;15.35;6.75;;;;;;;25.64;38.64;99341.72;3097750;28;20822;-73
2023/07/30 00:10:29;;;;;;;24.95;14.57;;;;;;;25.63;38.81;99340.91;3095618;28;20061;-73
2023/07/30 00:12:02;;;;;;;14.82;8.32;;;;;;;25.65;38.76;99336.22;3098729;28;20442;-73
2023/07/30 00:13:34;;;;;;;13.27;6.50;;;;;;;25.64;38.53;99339.91;3103771;28;20090;-74
2023/07/30 00:15:06;;;;;;;13.20;6.70;;;;;;;25.63;38.97;99340.91;3106846;28;20050;-73
2023/07/30 00:16:38;;;;;;;14.50;6.60;;;;;;;25.59;38.95;99330.78;3095400;28;20504;-73
2023/07/30 00:18:09;;;;;;;15.10;6.10;;;;;;;25.58;39.01;99337.09;3095248;28;20439;-73
2023/07/30 00:19:41;;;;;;;12.80;5.72;;;;;;;25.56;39.17;99328.47;3095336;28;20062;-73
2023/07/30 00:21:12;;;;;;;14.13;6.95;;;;;;;25.54;39.17;99333.16;3099631;28;20500;-73
2023/07/30 00:22:43;;;;;;;17.75;7.28;;;;;;;25.52;39.22;99338.63;3107402;28;20060;-73
2023/07/30 00:24:14;;;;;;;15.27;6.75;;;;;;;25.50;39.15;99335.34;3095436;28;20058;-74
2023/07/30 00:25:46;;;;;;;23.10;9.57;;;;;;;25.50;39.55;99339.84;3097743;28;20060;-73
2023/07/30 00:27:18;;;;;;;15.07;7.28;;;;;;;25.47;38.91;99341.03;3108867;28;20388;-72
2023/07/30 00:28:50;;;;;;;14.07;6.50;;;;;;;25.43;39.18;99339.69;3108573;28;20395;-73
2023/07/30 00:30:21;;;;;;;17.88;7.78;;;;;;;25.42;39.12;99338.88;3097595;28;20054;-73
2023/07/30 00:31:53;;;;;;;20.10;7.40;;;;;;;25.41;39.51;99334.56;3106401;28;20504;-73
2023/07/30 00:33:24;;;;;;;12.80;6.55;;;;;;;25.42;39.37;99336.22;3097473;28;20054;-73
2023/07/30 00:34:55;;;;;;;14.05;6.35;;;;;;;25.41;39.36;99339.06;3108608;28;20446;-73
2023/07/30 00:36:26;;;;;;;11.88;6.20;;;;;;;25.38;39.81;99334.09;3109640;28;20535;-73
2023/07/30 00:37:58;;;;;;;13.85;6.90;;;;;;;25.37;39.66;99340.41;3107794;28;20045;-73
2023/07/30 00:39:29;;;;;;;13.45;6.18;;;;;;;25.38;39.56;99337.56;3097645;28;20124;-73
2023/07/30 00:41:00;;;;;;;10.57;5.40;;;;;;;25.34;39.77;99340.75;3097317;28;20125;-74
2023/07/30 00:42:33;;;;;;;13.35;5.78;;;;;;;25.34;39.70;99332.75;3104239;28;20046;-73
2023/07/30 00:44:05;;;;;;;8.65;4.90;;;;;;;25.27;40.14;99324.66;3109189;28;20058;-73
2023/07/30 00:45:38;;;;;;;15.07;5.28;;;;;;;25.17;39.99;99332.00;3108715;28;20100;-73
2023/07/30 00:47:10;;;;;;;8.25;4.28;;;;;;;25.12;40.29;99329.84;3100317;28;20123;-73
2023/07/30 00:48:41;;;;;;;13.25;5.88;;;;;;;25.11;40.56;99330.03;3101123;28;20045;-73
2023/07/30 00:50:15;;;;;;;15.77;5.55;;;;;;;25.15;40.24;99336.72;3109448;28;20077;-73
2023/07/30 00:51:46;;;;;;;8.00;4.20;;;;;;;25.13;40.60;99333.34;3106452;28;20061;-73
2023/07/30 00:53:22;;;;;;;9.57;4.22;;;;;;;25.10;40.65;99345.19;3105061;28;20054;-73
2023/07/30 00:54:57;;;;;;;8.00;3.83;;;;;;;25.03;40.72;99327.41;3097954;28;20116;-73
2023/07/30 00:56:29;;;;;;;6.20;3.22;;;;;;;25.00;40.43;99338.41;3109042;28;20124;-73
2023/07/30 00:58:03;;;;;;;7.20;3.78;;;;;;;24.95;40.80;99336.25;3109312;28;20057;-73
2023/07/30 00:59:34;;;;;;;6.13;3.53;;;;;;;24.94;40.74;99335.44;3109575;28;20065;-73
2023/07/30 01:01:05;;;;;;;7.97;4.20;;;;;;;24.95;40.88;99336.25;3105963;28;20046;-73
2023/07/30 01:02:36;;;;;;;13.68;5.00;;;;;;;24.94;41.10;99332.78;3097246;28;20058;-73
2023/07/30 01:04:08;;;;;;;12.70;4.63;;;;;;;24.92;41.08;99337.44;3108154;28;20046;-73
2023/07/30 01:05:39;;;;;;;19.90;5.63;;;;;;;24.90;40.90;99334.09;3109493;28;20085;-74
2023/07/30 01:07:11;;;;;;;18.10;4.75;;;;;;;24.90;41.19;99341.28;3108877;28;20050;-72
2023/07/30 01:08:42;;;;;;;19.95;4.40;;;;;;;24.87;41.58;99334.44;3100104;28;20046;-73
2023/07/30 01:10:14;;;;;;;10.15;3.83;;;;;;;24.85;41.35;99347.13;3096950;28;20846;-72
2023/07/30 01:11:45;;;;;;;14.65;4.25;;;;;;;24.84;41.07;99344.63;3103883;28;20061;-73
2023/07/30 01:13:19;;;;;;;17.23;4.80;;;;;;;24.82;41.45;99342.16;3109100;28;20068;-73
2023/07/30 01:14:50;;;;;;;8.70;3.50;;;;;;;24.81;41.76;99342.31;3109141;28;20045;-73
2023/07/30 01:16:23;;;;;;;8.15;4.00;;;;;;;24.79;41.49;99341.63;3097835;28;20054;-72
2023/07/30 01:17:54;;;;;;;10.20;3.95;;;;;;;24.78;41.77;99340.81;3101113;28;20435;-73
2023/07/30 01:19:26;;;;;;;18.90;4.57;;;;;;;24.77;41.84;99343.66;3108964;28;20641;-72
2023/07/30 01:20:59;;;;;;;7.13;3.53;;;;;;;24.79;41.60;99338.97;3109065;28;20144;-73
2023/07/30 01:22:31;;;;;;;9.48;3.53;;;;;;;24.74;41.65;99335.00;3109395;28;20058;-74
2023/07/30 01:24:02;;;;;;;10.70;3.72;;;;;;;24.74;41.65;99340.34;3098269;28;20054;-74
2023/07/30 01:25:37;;;;;;;8.32;3.88;;;;;;;24.72;42.14;99341.50;3097757;28;20393;-75
2023/07/30 01:27:14;;;;;;;9.93;3.72;;;;;;;24.69;41.91;99337.34;3103587;28;20444;-75
2023/07/30 01:28:50;;;;;;;8.98;3.78;;;;;;;24.67;42.34;99339.38;3108694;28;20077;-74
2023/07/30 01:30:26;;;;;;;8.15;3.80;;;;;;;24.64;42.47;99337.06;3104938;28;20047;-74
2023/07/30 01:32:04;;;;;;;11.98;3.72;;;;;;;24.61;42.40;99341.88;3096787;28;20046;-74
2023/07/30 01:33:36;;;;;;;5.25;2.95;;;;;;;24.59;41.97;99338.56;3085030;28;20050;-74
2023/07/30 01:35:09;;;;;;;6.47;3.15;;;;;;;24.59;42.06;99355.34;3085148;28;20089;-75
2023/07/30 01:36:44;;;;;;;8.93;3.50;;;;;;;24.59;42.12;99350.03;3108514;28;20053;-74
2023/07/30 01:38:15;;;;;;;12.50;3.35;;;;;;;24.56;42.60;99350.38;3104595;28;20050;-74
2023/07/30 01:39:48;;;;;;;6.22;3.40;;;;;;;24.57;42.51;99349.38;3096788;28;20054;-74
2023/07/30 01:41:20;;;;;;;7.57;3.80;;;;;;;24.55;42.28;99348.72;3096929;28;20057;-74
2023/07/30 01:42:52;;;;;;;8.93;3.78;;;;;;;24.56;42.28;99346.88;3105623;28;20053;-74
2023/07/30 01:44:22;;;;;;;7.00;3.72;;;;;;;24.54;42.12;99349.72;3108785;28;20060;-73
2023/07/30 01:45:54;;;;;;;13.07;3.40;;;;;;;24.52;42.30;99347.22;3104018;28;20133;-73
2023/07/30 01:47:25;;;;;;;6.43;3.55;;;;;;;24.51;42.54;99334.91;3108737;28;20057;-73
2023/07/30 01:48:57;;;;;;;6.93;3.95;;;;;;;24.50;42.31;99349.22;3108965;28;20048;-73
2023/07/30 01:50:28;;;;;;;6.05;3.00;;;;;;;24.48;42.64;99353.88;3108880;28;20503;-73
2023/07/30 01:52:01;;;;;;;6.90;3.47;;;;;;;24.49;42.64;99347.56;3105801;28;20200;-74
2023/07/30 01:53:32;;;;;;;5.50;3.03;;;;;;;24.47;42.63;99351.41;3105528;28;20061;-72
2023/07/30 01:55:04;;;;;;;9.18;3.60;;;;;;;24.44;42.62;99349.06;3108520;28;20438;-73
2023/07/30 01:56:35;;;;;;;7.85;3.28;;;;;;;24.40;42.38;99355.69;3108603;28;20049;-73
2023/07/30 01:58:06;;;;;;;6.53;3.03;;;;;;;24.39;42.42;99352.19;3108509;28;20053;-73
2023/07/30 01:59:37;;;;;;;6.93;3.17;;;;;;;24.39;42.49;99346.88;3104073;28;20118;-73
2023/07/30 02:01:10;;;;;;;5.40;3.30;;;;;;;24.39;42.79;99354.88;3096582;28;20116;-73
2023/07/30 02:02:41;;;;;;;5.45;3.20;;;;;;;24.38;42.60;99349.72;3108201;28;20116;-73
2023/07/30 02:04:12;;;;;;;10.50;3.60;;;;;;;24.40;42.40;99353.03;3105593;28;20574;-73
2023/07/30 02:05:43;;;;;;;10.88;3.40;;;;;;;24.36;42.67;99349.06;3106345;28;20447;-73
2023/07/30 02:07:16;;;;;;;5.13;3.03;;;;;;;24.40;42.63;99361.00;3108645;28;20050;-73
2023/07/30 02:08:47;;;;;;;9.50;3.50;;;;;;;24.34;42.44;99359.84;3100007;28;20050;-73
2023/07/30 02:10:19;;;;;;;6.85;2.95;;;;;;;24.34;42.91;99359.03;3104205;28;20133;-73
2023/07/30 02:11:50;;;;;;;7.45;3.40;;;;;;;24.32;42.77;99358.38;3105275;28;20061;-73
2023/07/30 02:13:22;;;;;;;5.30;2.97;;;;;;;24.32;42.62;99347.75;3096025;28;20050;-73
2023/07/30 02:14:53;;;;;;;5.45;3.53;;;;;;;24.33;42.90;99360.03;3096527;28;20053;-73
2023/07/30 02:16:24;;;;;;;7.28;3.30;;;;;;;24.30;42.99;99356.69;3096046;28;20447;-74
2023/07/30 02:17:55;;;;;;;10.05;3.45;;;;;;;24.30;42.55;99353.22;3099988;28;20042;-74
2023/07/30 02:19:27;;;;;;;10.15;3.80;;;;;;;24.29;42.67;99360.38;3108121;28;20510;-73
2023/07/30 02:20:58;;;;;;;6.97;3.35;;;;;;;24.26;42.60;99358.06;3108231;28;20065;-73
2023/07/30 02:22:31;;;;;;;6.28;3.17;;;;;;;24.23;42.74;99358.38;3108715;28;20096;-73
2023/07/30 02:24:02;;;;;;;6.03;3.20;;;;;;;24.19;42.62;99351.72;3096936;28;20050;-73
2023/07/30 02:25:34;;;;;;;7.53;3.17;;;;;;;24.19;42.83;99354.38;3096335;28;20531;-73
2023/07/30 02:27:05;;;;;;;6.60;3.33;;;;;;;24.19;42.47;99362.38;3108418;28;20049;-74
2023/07/30 02:28:37;;;;;;;8.70;3.42;;;;;;;24.20;42.58;99361.38;3105525;28;20049;-74
2023/07/30 02:30:08;;;;;;;6.45;3.28;;;;;;;24.19;42.78;99357.03;3096183;28;20437;-73
2023/07/30 02:31:40;;;;;;;7.85;3.53;;;;;;;24.20;42.55;99358.72;3106239;28;20046;-74
2023/07/30 02:33:11;;;;;;;6.10;3.33;;;;;;;24.18;42.46;99358.06;3108420;28;20050;-73
2023/07/30 02:34:43;;;;;;;9.00;3.50;;;;;;;24.18;42.69;99359.88;3108394;28;20064;-73
2023/07/30 02:36:13;;;;;;;8.80;3.17;;;;;;;24.14;42.59;99359.41;3108241;28;20049;-74
2023/07/30 02:37:47;;;;;;;7.10;3.38;;;;;;;24.14;42.66;99358.56;3108493;28;20553;-74
2023/07/30 02:39:18;;;;;;;10.93;3.33;;;;;;;24.09;42.86;99366.22;3108429;28;20538;-73
2023/07/30 02:40:49;;;;;;;8.00;3.00;;;;;;;24.05;43.09;99366.53;3100372;28;20054;-73
2023/07/30 02:42:20;;;;;;;16.35;3.17;;;;;;;24.03;43.37;99363.22;3100193;28;20053;-74
2023/07/30 02:43:52;;;;;;;9.35;3.80;;;;;;;24.02;43.39;99363.41;3100230;28;20050;-73
2023/07/30 02:45:23;;;;;;;14.07;3.88;;;;;;;24.00;43.36;99379.50;3098640;28;20050;-73
2023/07/30 02:46:54;;;;;;;10.70;3.63;;;;;;;23.99;43.49;99369.03;3108296;28;20050;-75
2023/07/30 02:48:25;;;;;;;7.88;3.47;;;;;;;23.97;43.41;99377.19;3108074;28;20046;-73
2023/07/30 02:49:57;;;;;;;5.05;2.70;;;;;;;23.97;43.46;99382.50;3107829;28;20104;-73
2023/07/30 02:51:29;;;;;;;9.18;3.42;;;;;;;23.97;43.34;99379.00;3105579;28;20050;-74
2023/07/30 02:53:02;;;;;;;9.40;3.33;;;;;;;23.97;43.31;99374.53;3105561;28;20388;-74
2023/07/30 02:54:34;;;;;;;8.13;3.50;;;;;;;23.92;43.20;99376.84;3096201;28;20050;-74
2023/07/30 02:56:05;;;;;;;7.00;3.60;;;;;;;23.94;43.46;99382.00;3105353;28;20358;-73
2023/07/30 02:57:37;;;;;;;10.35;3.63;;;;;;;23.93;43.54;99382.97;3105688;28;20080;-74
2023/07/30 02:59:07;;;;;;;5.75;3.20;;;;;;;23.92;43.39;99381.31;3095780;28;20121;-73
2023/07/30 03:00:39;;;;;;;6.97;2.92;;;;;;;23.91;43.07;99390.31;3099995;28;20499;-73
2023/07/30 03:02:10;;;;;;;10.80;3.40;;;;;;;23.87;43.08;99388.97;3103972;28;20057;-73
2023/07/30 03:03:42;;;;;;;7.07;2.85;;;;;;;23.83;43.16;99391.13;3107801;28;20451;-72
2023/07/30 03:05:13;;;;;;;8.90;3.33;;;;;;;23.82;43.29;99386.81;3108068;28;20065;-73
2023/07/30 03:06:44;;;;;;;5.18;3.13;;;;;;;23.79;43.02;99390.63;3103752;28;20467;-72
2023/07/30 03:08:17;;;;;;;9.90;3.25;;;;;;;23.81;43.42;99393.09;3103437;28;20054;-74
2023/07/30 03:09:49;;;;;;;9.15;3.30;;;;;;;23.72;43.65;99394.94;3096029;28;20050;-71
2023/07/30 03:11:20;;;;;;;10.50;3.47;;;;;;;23.68;43.47;99396.22;3099422;28;20053;-74
2023/07/30 03:12:52;;;;;;;6.72;3.40;;;;;;;23.66;43.59;99397.38;3101240;28;20050;-74
2023/07/30 03:14:22;;;;;;;8.55;3.22;;;;;;;23.63;43.53;99398.53;3097460;28;20050;-74
2023/07/30 03:15:54;;;;;;;6.32;3.03;;;;;;;23.63;43.73;99403.84;3100827;28;20104;-74
2023/07/30 03:17:25;;;;;;;9.30;3.70;;;;;;;23.64;43.98;99402.03;3095964;28;20443;-74
2023/07/30 03:18:57;;;;;;;4.95;2.80;;;;;;;23.65;43.61;99404.53;3084019;28;20047;-74
2023/07/30 03:20:28;;;;;;;9.77;3.70;;;;;;;23.65;44.15;99406.34;3106904;28;20605;-74
2023/07/30 03:22:00;;;;;;;11.73;3.55;;;;;;;23.62;43.85;99407.50;3107449;28;20196;-74
2023/07/30 03:23:32;;;;;;;9.70;3.63;;;;;;;23.62;43.91;99418.13;3101643;28;20054;-74
2023/07/30 03:25:05;;;;;;;6.43;3.47;;;;;;;23.59;44.37;99407.84;3095684;28;20050;-73
2023/07/30 03:26:36;;;;;;;9.98;3.30;;;;;;;23.57;44.31;99409.81;3104516;28;20128;-74
2023/07/30 03:28:07;;;;;;;14.45;3.67;;;;;;;23.58;44.13;99414.16;3099052;28;20076;-74
2023/07/30 03:29:38;;;;;;;7.28;3.25;;;;;;;23.56;44.58;99403.66;3107724;28;20045;-74
2023/07/30 03:31:10;;;;;;;6.18;3.50;;;;;;;23.58;44.31;99407.00;3107938;28;20453;-74
2023/07/30 03:32:41;;;;;;;8.52;3.83;;;;;;;23.59;44.38;99413.16;3107850;28;20050;-74
2023/07/30 03:34:12;;;;;;;10.63;4.53;;;;;;;23.57;44.94;99415.97;3107933;28;20076;-74
2023/07/30 03:35:44;;;;;;;5.88;3.25;;;;;;;23.56;44.74;99410.81;3107935;28;20054;-74
2023/07/30 03:37:15;;;;;;;5.55;3.13;;;;;;;23.55;44.80;99412.66;3107656;28;20543;-74
2023/07/30 03:38:48;;;;;;;13.60;3.75;;;;;;;23.57;44.85;99409.81;3099305;28;20447;-74
2023/07/30 03:40:19;;;;;;;14.93;4.18;;;;;;;23.53;44.58;99409.31;3095490;28;20136;-74
2023/07/30 03:41:50;;;;;;;10.70;3.83;;;;;;;23.53;44.98;99411.13;3095590;28;20050;-74
2023/07/30 03:43:22;;;;;;;16.92;4.65;;;;;;;23.53;45.16;99411.13;3095520;28;20062;-74
2023/07/30 03:44:53;;;;;;;12.95;4.45;;;;;;;23.51;45.05;99410.47;3095153;28;20061;-74
2023/07/30 03:46:25;;;;;;;13.68;3.85;;;;;;;23.49;45.16;99407.97;3106369;28;20053;-74
2023/07/30 03:47:55;;;;;;;7.00;3.63;;;;;;;23.48;45.02;99411.63;3107787;28;20046;-74
2023/07/30 03:49:27;;;;;;;14.93;4.03;;;;;;;23.48;45.14;99410.78;3107858;28;20053;-74
2023/07/30 03:50:58;;;;;;;16.90;4.03;;;;;;;23.47;45.55;99409.13;3107372;28;20061;-74
2023/07/30 03:52:30;;;;;;;14.80;3.72;;;;;;;23.48;45.31;99405.47;3105408;28;20050;-74
2023/07/30 03:54:03;;;;;;;9.73;4.03;;;;;;;23.50;45.02;99406.16;3097375;28;20058;-75
2023/07/30 03:55:34;;;;;;;14.82;4.15;;;;;;;23.48;45.48;99416.94;3102156;28;20060;-74
2023/07/30 03:57:06;;;;;;;18.15;4.05;;;;;;;23.47;45.28;99415.28;3097068;28;20050;-74
2023/07/30 03:58:37;;;;;;;15.93;3.78;;;;;;;23.47;45.61;99414.44;3100851;28;20053;-74
2023/07/30 04:00:09;;;;;;;19.02;5.00;;;;;;;23.49;45.28;99423.09;3107622;28;20770;-74
2023/07/30 04:01:40;;;;;;;20.05;4.32;;;;;;;23.49;45.65;99425.75;3108560;28;20042;-74
2023/07/30 04:03:12;;;;;;;10.05;4.05;;;;;;;23.52;45.47;99422.78;3110206;28;20196;-74
2023/07/30 04:04:44;;;;;;;14.05;4.05;;;;;;;23.51;45.60;99421.91;3104067;28;20104;-74
2023/07/30 04:06:16;;;;;;;11.43;3.70;;;;;;;23.42;45.96;99427.38;3099038;28;20042;-74
2023/07/30 04:07:47;;;;;;;6.00;3.22;;;;;;;23.31;45.91;99424.03;3109915;28;20057;-74
2023/07/30 04:09:20;;;;;;;5.35;3.10;;;;;;;23.25;46.27;99426.47;3098161;28;20058;-74
2023/07/30 04:10:51;;;;;;;9.40;3.15;;;;;;;23.15;46.27;99422.13;3089356;28;20057;-74
2023/07/30 04:12:23;;;;;;;8.35;2.85;;;;;;;23.09;46.39;99416.63;3097993;28;20046;-74
2023/07/30 04:13:54;;;;;;;8.60;3.25;;;;;;;22.98;46.85;99423.03;3108373;28;20054;-73
2023/07/30 04:15:26;;;;;;;8.23;2.70;;;;;;;22.93;47.08;99422.66;3108330;28;20050;-74
2023/07/30 04:16:57;;;;;;;7.15;3.20;;;;;;;22.96;47.11;99421.56;3101279;28;20050;-74
2023/07/30 04:18:28;;;;;;;4.70;2.83;;;;;;;22.96;47.01;99422.38;3105729;28;20507;-74
2023/07/30 04:19:59;;;;;;;5.22;2.60;;;;;;;22.98;47.09;99428.34;3109854;28;20447;-74
2023/07/30 04:21:31;;;;;;;5.10;2.53;;;;;;;23.02;46.72;99432.38;3110133;28;20046;-74
2023/07/30 04:23:02;;;;;;;10.63;2.90;;;;;;;23.05;46.87;99433.88;3107179;28;20042;-74
2023/07/30 04:24:35;;;;;;;10.30;2.40;;;;;;;23.07;46.70;99431.88;3098158;28;20064;-74
2023/07/30 04:26:07;;;;;;;10.95;3.22;;;;;;;23.05;46.98;99439.19;3097764;28;20054;-74
2023/07/30 04:27:38;;;;;;;5.45;2.70;;;;;;;23.04;47.03;99433.06;3101152;28;20812;-74
2023/07/30 04:29:10;;;;;;;3.20;2.42;;;;;;;23.02;46.83;99435.03;3109801;28;20104;-74
2023/07/30 04:30:41;;;;;;;6.47;2.90;;;;;;;23.03;46.78;99439.34;3109989;28;20474;-74
2023/07/30 04:32:12;;;;;;;4.93;2.78;;;;;;;23.00;47.00;99436.16;3109762;28;20050;-74
2023/07/30 04:33:43;;;;;;;6.68;2.70;;;;;;;22.95;47.07;99439.28;3109945;28;20058;-74
2023/07/30 04:35:15;;;;;;;4.20;2.65;;;;;;;22.90;47.20;99441.56;3109958;28;20056;-74
2023/07/30 04:36:46;;;;;;;7.10;2.80;;;;;;;22.85;47.13;99443.84;3109538;28;20065;-73
2023/07/30 04:38:18;;;;;;;12.48;2.92;;;;;;;22.80;47.21;99444.31;3105574;28;20104;-74
2023/07/30 04:39:50;;;;;;;6.68;2.60;;;;;;;22.68;47.49;99437.59;3097666;28;20089;-74
2023/07/30 04:41:22;;;;;;;7.85;3.30;;;;;;;22.59;47.53;99442.00;3095131;28;20058;-74
2023/07/30 04:42:52;;;;;;;11.13;3.20;;;;;;;22.55;47.68;99440.66;3106598;28;20077;-74
2023/07/30 04:44:24;;;;;;;6.72;3.60;;;;;;;22.55;47.85;99438.00;3109718;28;20145;-74
2023/07/30 04:45:55;;;;;;;7.45;2.78;;;;;;;22.56;47.67;99447.63;3108756;28;20504;-74
2023/07/30 04:47:27;;;;;;;6.30;2.80;;;;;;;22.55;47.92;99440.66;3109683;28;20057;-74
2023/07/30 04:48:58;;;;;;;4.22;2.47;;;;;;;22.58;47.47;99445.66;3109713;28;20088;-74
2023/07/30 04:50:30;;;;;;;7.82;3.10;;;;;;;22.61;47.46;99447.19;3109714;28;20056;-74
2023/07/30 04:52:00;;;;;;;8.88;3.17;;;;;;;22.63;47.26;99439.91;3106819;28;20050;-74
2023/07/30 04:53:32;;;;;;;6.18;3.15;;;;;;;22.64;47.16;99436.25;3101607;28;20424;-74
2023/07/30 04:55:06;;;;;;;7.35;3.25;;;;;;;22.75;47.16;99445.78;3097448;28;20440;-74
2023/07/30 04:56:38;;;;;;;9.55;2.90;;;;;;;22.79;47.17;99445.31;3099402;28;20090;-74
2023/07/30 04:58:09;;;;;;;9.80;3.40;;;;;;;22.85;46.99;99439.38;3109596;28;20053;-74
2023/07/30 04:59:40;;;;;;;6.22;3.00;;;;;;;22.91;46.96;99441.38;3109094;28;20053;-74
2023/07/30 05:01:11;;;;;;;8.30;3.47;;;;;;;22.98;46.79;99435.47;3101539;28;20057;-74
2023/07/30 05:02:43;;;;;;;7.97;3.00;;;;;;;23.06;46.70;99439.00;3097162;28;20054;-75
2023/07/30 05:04:14;;;;;;;6.20;2.70;;;;;;;23.13;46.89;99434.75;3108333;28;20518;-74
2023/07/30 05:05:46;;;;;;;14.27;2.92;;;;;;;23.18;46.43;99439.56;3109411;28;20053;-74
2023/07/30 05:07:17;;;;;;;5.90;2.70;;;;;;;23.22;46.32;99442.72;3109124;28;20053;-72
2023/07/30 05:08:49;;;;;;;7.60;2.60;;;;;;;23.26;46.32;99439.63;3100804;28;20050;-73
2023/07/30 05:10:21;;;;;;;4.05;2.78;;;;;;;23.33;45.99;99440.63;3097065;28;20050;-73
2023/07/30 05:11:53;;;;;;;5.80;2.50;;;;;;;23.38;46.23;99437.50;3101520;28;20050;-73
2023/07/30 05:13:24;;;;;;;8.95;3.00;;;;;;;23.47;45.77;99443.69;3100498;28;20054;-74
2023/07/30 05:14:55;;;;;;;6.00;2.58;;;;;;;23.50;46.18;99441.53;3103199;28;20068;-73
2023/07/30 05:16:26;;;;;;;9.48;2.60;;;;;;;23.55;45.70;99441.88;3097436;28;20069;-75
2023/07/30 05:17:58;;;;;;;3.50;2.50;;;;;;;23.65;45.44;99441.75;3101519;28;20483;-74
2023/07/30 05:19:29;;;;;;;4.00;2.35;;;;;;;23.72;45.60;99441.94;3109254;28;20054;-74
2023/07/30 05:21:01;;;;;;;5.75;2.55;;;;;;;23.78;45.59;99447.47;3107006;28;20065;-74
2023/07/30 05:22:32;;;;;;;6.38;2.70;;;;;;;23.86;45.72;99443.16;3099215;28;20054;-73
2023/07/30 05:24:04;;;;;;;4.93;2.20;;;;;;;23.91;45.01;99440.84;3099846;28;20046;-75
2023/07/30 05:25:36;;;;;;;7.10;2.85;;;;;;;23.95;45.11;99455.47;3109181;28;20077;-75
2023/07/30 05:27:08;;;;;;;10.07;2.80;;;;;;;23.94;44.58;99449.31;3108832;28;20061;-74
2023/07/30 05:28:39;;;;;;;6.25;2.88;;;;;;;23.94;44.72;99448.50;3109276;28;20054;-74
2023/07/30 05:30:11;;;;;;;5.18;2.60;;;;;;;23.96;44.44;99450.00;3109323;28;20050;-73
2023/07/30 05:31:42;;;;;;;8.63;2.80;;;;;;;23.97;44.28;99448.97;3108673;28;20510;-73
2023/07/30 05:33:14;;;;;;;4.82;2.67;;;;;;;23.99;44.76;99446.19;3109268;28;20053;-73
2023/07/30 05:34:45;;;;;;;5.72;2.50;;;;;;;24.04;44.38;99446.50;3108230;28;20053;-74
2023/07/30 05:36:17;;;;;;;7.40;2.35;;;;;;;24.09;44.09;99457.47;3108995;28;20065;-75
2023/07/30 05:37:47;;;;;;;11.65;2.83;;;;;;;24.14;43.83;99452.50;3108454;28;20053;-73
2023/07/30 05:39:20;;;;;;;3.10;2.40;;;;;;;24.19;43.58;99455.47;3103527;28;20054;-73
2023/07/30 05:40:53;;;;;;;7.45;2.30;;;;;;;24.21;43.34;99444.69;3100788;28;20125;-73
2023/07/30 05:42:24;;;;;;;3.45;2.25;;;;;;;24.21;43.69;99450.84;3102250;28;20519;-73
2023/07/30 05:43:55;;;;;;;6.30;2.92;;;;;;;24.25;43.50;99451.31;3108362;28;20191;-75
2023/07/30 05:45:27;;;;;;;6.20;2.53;;;;;;;24.27;43.24;99450.16;3108178;28;20439;-74
2023/07/30 05:46:58;;;;;;;5.03;2.30;;;;;;;24.37;43.63;99446.50;3109075;28;20045;-74
2023/07/30 05:48:29;;;;;;;6.30;2.45;;;;;;;24.46;43.39;99445.53;3108980;28;20049;-74
2023/07/30 05:50:02;;;;;;;9.23;2.63;;;;;;;24.54;42.89;99444.72;3100353;28;20042;-75
2023/07/30 05:51:33;;;;;;;3.80;2.47;;;;;;;24.60;43.21;99444.88;3105991;28;20054;-74
2023/07/30 05:53:05;;;;;;;4.95;2.40;;;;;;;24.67;42.80;99453.03;3104824;28;20181;-74
2023/07/30 05:54:36;;;;;;;6.07;2.83;;;;;;;24.71;42.78;99449.84;3096820;28;20054;-74
2023/07/30 05:56:10;;;;;;;6.13;2.17;;;;;;;24.79;42.59;99457.00;3107718;28;20140;-74
2023/07/30 05:57:41;;;;;;;5.00;2.40;;;;;;;24.90;42.45;99455.81;3098922;28;20081;-74
2023/07/30 05:59:14;;;;;;;5.50;2.42;;;;;;;24.99;42.32;99449.44;3096614;28;20062;-74
2023/07/30 06:00:45;;;;;;;5.30;2.70;;;;;;;25.09;41.87;99455.44;3106134;28;20054;-73
2023/07/30 06:02:17;;;;;;;7.95;2.65;;;;;;;25.17;41.60;99450.13;3108776;28;20438;-74
2023/07/30 06:03:48;;;;;;;9.10;3.33;;;;;;;25.23;41.90;99450.41;3109049;28;20053;-74
2023/07/30 06:05:20;;;;;;;7.00;2.40;;;;;;;25.30;41.62;99446.06;3108442;28;20129;-74
2023/07/30 06:06:51;;;;;;;8.02;2.42;;;;;;;25.37;41.28;99452.34;3108427;28;20061;-75
2023/07/30 06:08:23;;;;;;;10.25;2.28;;;;;;;25.45;41.70;99440.84;3099137;28;20050;-74
2023/07/30 06:09:53;;;;;;;7.40;3.28;;;;;;;25.53;41.56;99441.63;3096600;28;20120;-74
2023/07/30 06:11:27;;;;;;;6.25;2.90;;;;;;;25.64;41.58;99449.25;3100256;28;20050;-74
2023/07/30 06:12:58;;;;;;;7.13;2.80;;;;;;;25.78;40.82;99447.66;3108723;28;20095;-74
2023/07/30 06:14:30;;;;;;;9.20;2.97;;;;;;;25.93;40.64;99442.41;3105877;28;20503;-73
2023/07/30 06:16:01;;;;;;;3.40;2.47;;;;;;;26.12;40.60;99442.94;3096297;28;20058;-73
2023/07/30 06:17:33;;;;;;;6.75;3.00;;;;;;;26.37;40.34;99432.91;3097497;28;20093;-73
2023/07/30 06:19:05;;;;;;;7.38;2.97;;;;;;;26.64;39.65;99442.22;3108307;28;20104;-73
2023/07/30 06:20:37;;;;;;;17.65;2.97;;;;;;;26.75;39.46;99436.44;3096652;28;20054;-73
2023/07/30 06:22:07;;;;;;;6.28;2.92;;;;;;;26.85;39.20;99442.31;3105472;28;20072;-73
2023/07/30 06:23:39;;;;;;;7.95;2.80;;;;;;;26.88;39.24;99438.47;3095821;28;20058;-74
2023/07/30 06:25:10;;;;;;;6.10;3.58;;;;;;;26.92;39.39;99440.59;3095779;28;20055;-72
2023/07/30 06:26:43;;;;;;;6.47;2.88;;;;;;;26.94;39.11;99438.53;3106457;28;20115;-73
2023/07/30 06:28:14;;;;;;;;;;;;;;;26.78;39.32;99441.41;3108688;28;20061;-73
2023/07/30 06:29:46;;;;;;;3.50;2.88;;;;;;;26.78;39.08;99439.56;3107979;28;19922;-73
2023/07/30 06:31:18;;;;;;;13.57;2.92;;;;;;;26.81;38.66;99435.69;3108377;28;20471;-73
2023/07/30 06:32:49;;;;;;;4.80;2.60;;;;;;;26.85;38.94;99436.16;3108553;28;20578;-73
2023/07/30 06:34:20;;;;;;;9.32;2.50;;;;;;;26.95;38.64;99440.22;3108474;28;20046;-73
2023/07/30 06:35:52;;;;;;;7.55;2.72;;;;;;;27.03;38.90;99436.63;3108190;28;20204;-73
2023/07/30 06:37:23;;;;;;;9.00;2.83;;;;;;;27.10;38.57;99434.06;3099507;28;20050;-73
2023/07/30 06:38:55;;;;;;;6.28;3.00;;;;;;;27.15;38.67;99429.00;3096279;28;20050;-73
2023/07/30 06:40:25;;;;;;;9.80;3.00;;;;;;;27.15;38.32;99427.19;3096179;28;20506;-73
2023/07/30 06:41:59;;;;;;;5.75;3.08;;;;;;;27.20;38.40;99429.28;3098052;28;20046;-73
2023/07/30 06:43:29;;;;;;;4.20;2.58;;;;;;;27.22;38.23;99428.06;3108265;28;20061;-73
2023/07/30 06:45:01;;;;;;;8.13;2.22;;;;;;;27.30;38.04;99432.50;3107764;28;20050;-73
2023/07/30 06:46:33;;;;;;;6.22;2.72;;;;;;;27.34;38.39;99431.09;3096593;28;20061;-73
2023/07/30 06:48:04;;;;;;;5.40;2.70;;;;;;;27.39;38.30;99426.03;3108160;28;20519;-73
2023/07/30 06:49:36;;;;;;;7.13;2.30;;;;;;;27.42;38.10;99428.34;3108407;28;20054;-73
2023/07/30 06:51:09;;;;;;;2.88;1.85;;;;;;;27.48;37.65;99421.41;3106382;28;20561;-73
2023/07/30 06:52:41;;;;;;;7.18;2.38;;;;;;;27.53;37.72;99418.97;3103853;28;20058;-73
2023/07/30 06:54:12;;;;;;;5.72;2.15;;;;;;;27.65;37.46;99424.66;3095883;28;20571;-73
2023/07/30 06:55:44;;;;;;;8.50;2.60;;;;;;;27.75;37.60;99422.53;3104270;28;20136;-73
2023/07/30 06:57:16;;;;;;;6.88;2.33;;;;;;;27.84;37.17;99412.56;3108036;28;20046;-73
2023/07/30 06:58:48;;;;;;;3.33;2.05;;;;;;;27.92;37.43;99411.59;3108180;28;20050;-74
2023/07/30 07:00:21;;;;;;;8.43;2.33;;;;;;;28.05;36.97;99414.41;3108127;28;20195;-74
2023/07/30 07:01:53;;;;;;;15.60;2.47;;;;;;;28.11;37.25;99409.13;3108345;28;20050;-73
2023/07/30 07:03:24;;;;;;;7.40;1.95;;;;;;;28.26;36.71;99403.69;3108042;28;20483;-74
2023/07/30 07:04:55;;;;;;;5.72;2.03;;;;;;;28.40;36.53;99395.78;3104555;28;20137;-74
2023/07/30 07:06:26;;;;;;;4.22;2.42;;;;;;;28.55;36.20;99392.00;3100639;28;20386;-73
2023/07/30 07:07:58;;;;;;;7.07;2.15;;;;;;;28.70;35.84;99399.09;3096796;28;20056;-74
2023/07/30 07:09:29;;;;;;;12.77;2.97;;;;;;;28.76;35.79;99403.66;3095931;28;20495;-73
2023/07/30 07:11:01;;;;;;;8.05;2.50;;;;;;;28.82;35.34;99402.88;3096408;28;20077;-74